sensor_id;sensor_type;location;lat;lon;timestamp;P1;durP1;ratioP1;P2;durP2;ratioP2
3771;SDS011;1901;48.172;12.824;2023-05-02T00:00:47;4.23;;;2.70;;
3771;SDS011;1901;48.172;12.824;2023-05-02T00:03:14;2.63;;;2.40;;
3771;SDS011;1901;48.172;12.824;2023-05-02T00:05:42;3.10;;;2.70;;
3771;SDS011;1901;48.172;12.824;2023-05-02T00:08:09;2.63;;;2.33;;
3771;SDS011;1901;48.172;12.824;2023-05-02T00:10:37;2.80;;;2.60;;
3771;SDS011;1901;48.172;12.824;2023-05-02T00:13:04;2.60;;;2.30;;
3771;SDS011;1901;48.172;12.824;2023-05-02T00:15:31;2.93;;;2.43;;
3771;SDS011;1901;48.172;12.824;2023-05-02T00:17:59;3.20;;;2.80;;
3771;SDS011;1901;48.172;12.824;2023-05-02T00:20:26;3.23;;;2.80;;
3771;SDS011;1901;48.172;12.824;2023-05-02T00:22:54;4.10;;;2.87;;
3771;SDS011;1901;48.172;12.824;2023-05-02T00:25:21;3.20;;;2.53;;
3771;SDS011;1901;48.172;12.824;2023-05-02T00:27:48;3.70;;;2.30;;
3771;SDS011;1901;48.172;12.824;2023-05-02T00:30:16;3.17;;;2.50;;
3771;SDS011;1901;48.172;12.824;2023-05-02T00:32:46;2.80;;;2.27;;
3771;SDS011;1901;48.172;12.824;2023-05-02T00:35:14;2.10;;;1.90;;
3771;SDS011;1901;48.172;12.824;2023-05-02T00:37:41;2.90;;;2.27;;
3771;SDS011;1901;48.172;12.824;2023-05-02T00:40:09;2.50;;;2.30;;
3771;SDS011;1901;48.172;12.824;2023-05-02T00:42:36;2.20;;;1.97;;
3771;SDS011;1901;48.172;12.824;2023-05-02T00:45:04;2.60;;;2.40;;
3771;SDS011;1901;48.172;12.824;2023-05-02T00:47:31;2.30;;;2.10;;
3771;SDS011;1901;48.172;12.824;2023-05-02T00:49:58;2.73;;;2.40;;
3771;SDS011;1901;48.172;12.824;2023-05-02T00:52:27;2.93;;;2.13;;
3771;SDS011;1901;48.172;12.824;2023-05-02T00:54:54;3.10;;;2.10;;
3771;SDS011;1901;48.172;12.824;2023-05-02T00:57:21;2.27;;;1.70;;
3771;SDS011;1901;48.172;12.824;2023-05-02T00:59:49;2.73;;;1.87;;
3771;SDS011;1901;48.172;12.824;2023-05-02T01:05:04;2.13;;;1.70;;
3771;SDS011;1901;48.172;12.824;2023-05-02T01:07:39;2.60;;;2.20;;
3771;SDS011;1901;48.172;12.824;2023-05-02T01:10:13;2.77;;;2.10;;
3771;SDS011;1901;48.172;12.824;2023-05-02T01:12:46;2.80;;;2.53;;
3771;SDS011;1901;48.172;12.824;2023-05-02T01:15:18;2.63;;;2.43;;
3771;SDS011;1901;48.172;12.824;2023-05-02T01:17:46;2.90;;;2.40;;
3771;SDS011;1901;48.172;12.824;2023-05-02T01:20:15;2.80;;;2.53;;
3771;SDS011;1901;48.172;12.824;2023-05-02T01:22:46;2.70;;;2.00;;
3771;SDS011;1901;48.172;12.824;2023-05-02T01:25:17;2.53;;;2.20;;
3771;SDS011;1901;48.172;12.824;2023-05-02T01:27:48;4.30;;;2.67;;
3771;SDS011;1901;48.172;12.824;2023-05-02T01:30:18;3.57;;;2.60;;
3771;SDS011;1901;48.172;12.824;2023-05-02T01:32:47;2.77;;;2.37;;
3771;SDS011;1901;48.172;12.824;2023-05-02T01:35:15;3.30;;;2.37;;
3771;SDS011;1901;48.172;12.824;2023-05-02T01:37:44;4.60;;;2.80;;
3771;SDS011;1901;48.172;12.824;2023-05-02T01:40:12;3.20;;;2.47;;
3771;SDS011;1901;48.172;12.824;2023-05-02T01:42:41;3.37;;;2.80;;
3771;SDS011;1901;48.172;12.824;2023-05-02T01:45:10;3.17;;;2.70;;
3771;SDS011;1901;48.172;12.824;2023-05-02T01:47:39;4.53;;;2.87;;
3771;SDS011;1901;48.172;12.824;2023-05-02T01:50:10;4.00;;;2.87;;
3771;SDS011;1901;48.172;12.824;2023-05-02T01:52:37;3.63;;;2.73;;
3771;SDS011;1901;48.172;12.824;2023-05-02T01:55:06;6.70;;;3.90;;
3771;SDS011;1901;48.172;12.824;2023-05-02T01:57:33;6.13;;;3.93;;
3771;SDS011;1901;48.172;12.824;2023-05-02T02:00:01;3.67;;;2.90;;
3771;SDS011;1901;48.172;12.824;2023-05-02T02:02:29;3.10;;;2.70;;
3771;SDS011;1901;48.172;12.824;2023-05-02T02:04:58;3.87;;;3.47;;
3771;SDS011;1901;48.172;12.824;2023-05-02T02:07:25;5.83;;;3.63;;
3771;SDS011;1901;48.172;12.824;2023-05-02T02:09:52;3.67;;;2.70;;
3771;SDS011;1901;48.172;12.824;2023-05-02T02:12:22;6.43;;;2.83;;
3771;SDS011;1901;48.172;12.824;2023-05-02T02:14:54;3.43;;;3.13;;
3771;SDS011;1901;48.172;12.824;2023-05-02T02:17:23;4.30;;;3.03;;
3771;SDS011;1901;48.172;12.824;2023-05-02T02:19:52;4.40;;;3.27;;
3771;SDS011;1901;48.172;12.824;2023-05-02T02:22:21;5.03;;;3.97;;
3771;SDS011;1901;48.172;12.824;2023-05-02T02:24:49;3.57;;;3.00;;
3771;SDS011;1901;48.172;12.824;2023-05-02T02:27:18;3.73;;;2.97;;
3771;SDS011;1901;48.172;12.824;2023-05-02T02:29:45;5.40;;;3.20;;
3771;SDS011;1901;48.172;12.824;2023-05-02T02:32:13;3.53;;;3.13;;
3771;SDS011;1901;48.172;12.824;2023-05-02T02:34:40;3.37;;;2.97;;
3771;SDS011;1901;48.172;12.824;2023-05-02T02:37:08;3.70;;;3.07;;
3771;SDS011;1901;48.172;12.824;2023-05-02T02:39:41;4.47;;;3.47;;
3771;SDS011;1901;48.172;12.824;2023-05-02T02:42:11;8.43;;;5.87;;
3771;SDS011;1901;48.172;12.824;2023-05-02T02:44:42;5.30;;;4.27;;
3771;SDS011;1901;48.172;12.824;2023-05-02T02:47:12;3.90;;;3.10;;
3771;SDS011;1901;48.172;12.824;2023-05-02T02:49:43;6.70;;;3.80;;
3771;SDS011;1901;48.172;12.824;2023-05-02T02:52:13;5.27;;;3.43;;
3771;SDS011;1901;48.172;12.824;2023-05-02T02:54:45;4.17;;;3.43;;
3771;SDS011;1901;48.172;12.824;2023-05-02T02:57:14;3.63;;;3.30;;
3771;SDS011;1901;48.172;12.824;2023-05-02T02:59:45;5.63;;;4.10;;
3771;SDS011;1901;48.172;12.824;2023-05-02T03:02:14;5.20;;;4.10;;
3771;SDS011;1901;48.172;12.824;2023-05-02T03:04:43;7.43;;;4.07;;
3771;SDS011;1901;48.172;12.824;2023-05-02T03:07:12;4.13;;;3.73;;
3771;SDS011;1901;48.172;12.824;2023-05-02T03:09:39;8.63;;;7.70;;
3771;SDS011;1901;48.172;12.824;2023-05-02T03:12:08;4.43;;;3.90;;
3771;SDS011;1901;48.172;12.824;2023-05-02T03:14:35;5.50;;;3.70;;
3771;SDS011;1901;48.172;12.824;2023-05-02T03:17:02;4.00;;;3.60;;
3771;SDS011;1901;48.172;12.824;2023-05-02T03:19:29;5.53;;;5.03;;
3771;SDS011;1901;48.172;12.824;2023-05-02T03:21:56;6.40;;;4.33;;
3771;SDS011;1901;48.172;12.824;2023-05-02T03:24:23;8.90;;;6.30;;
3771;SDS011;1901;48.172;12.824;2023-05-02T03:26:53;5.87;;;5.27;;
3771;SDS011;1901;48.172;12.824;2023-05-02T03:29:21;5.40;;;4.53;;
3771;SDS011;1901;48.172;12.824;2023-05-02T03:31:49;6.10;;;3.60;;
3771;SDS011;1901;48.172;12.824;2023-05-02T03:34:16;3.73;;;3.40;;
3771;SDS011;1901;48.172;12.824;2023-05-02T03:36:43;4.20;;;3.80;;
3771;SDS011;1901;48.172;12.824;2023-05-02T03:39:10;3.90;;;3.50;;
3771;SDS011;1901;48.172;12.824;2023-05-02T03:41:37;3.40;;;3.10;;
3771;SDS011;1901;48.172;12.824;2023-05-02T03:44:06;5.03;;;4.33;;
3771;SDS011;1901;48.172;12.824;2023-05-02T03:46:34;4.90;;;4.00;;
3771;SDS011;1901;48.172;12.824;2023-05-02T03:49:01;4.43;;;3.73;;
3771;SDS011;1901;48.172;12.824;2023-05-02T03:51:28;5.83;;;4.27;;
3771;SDS011;1901;48.172;12.824;2023-05-02T03:53:56;10.60;;;7.40;;
3771;SDS011;1901;48.172;12.824;2023-05-02T03:56:23;7.00;;;5.80;;
3771;SDS011;1901;48.172;12.824;2023-05-02T03:58:50;4.30;;;3.90;;
3771;SDS011;1901;48.172;12.824;2023-05-02T04:01:17;4.63;;;4.00;;
3771;SDS011;1901;48.172;12.824;2023-05-02T04:03:45;6.53;;;4.20;;
3771;SDS011;1901;48.172;12.824;2023-05-02T04:06:13;4.10;;;3.70;;
3771;SDS011;1901;48.172;12.824;2023-05-02T04:08:40;5.17;;;4.43;;
3771;SDS011;1901;48.172;12.824;2023-05-02T04:11:07;6.67;;;4.20;;
3771;SDS011;1901;48.172;12.824;2023-05-02T04:13:34;6.00;;;5.20;;
3771;SDS011;1901;48.172;12.824;2023-05-02T04:16:01;5.07;;;4.40;;
3771;SDS011;1901;48.172;12.824;2023-05-02T04:18:28;6.17;;;4.43;;
3771;SDS011;1901;48.172;12.824;2023-05-02T04:20:57;4.10;;;3.70;;
3771;SDS011;1901;48.172;12.824;2023-05-02T04:23:24;5.57;;;4.83;;
3771;SDS011;1901;48.172;12.824;2023-05-02T04:25:51;4.47;;;4.07;;
3771;SDS011;1901;48.172;12.824;2023-05-02T04:28:19;4.43;;;3.50;;
3771;SDS011;1901;48.172;12.824;2023-05-02T04:30:46;5.20;;;4.47;;
3771;SDS011;1901;48.172;12.824;2023-05-02T04:33:14;6.73;;;4.30;;
3771;SDS011;1901;48.172;12.824;2023-05-02T04:35:41;6.33;;;4.27;;
3771;SDS011;1901;48.172;12.824;2023-05-02T04:38:09;9.87;;;5.90;;
3771;SDS011;1901;48.172;12.824;2023-05-02T04:40:36;5.37;;;4.87;;
3771;SDS011;1901;48.172;12.824;2023-05-02T04:43:03;5.00;;;4.27;;
3771;SDS011;1901;48.172;12.824;2023-05-02T04:45:30;5.90;;;4.57;;
3771;SDS011;1901;48.172;12.824;2023-05-02T04:47:57;6.37;;;4.77;;
3771;SDS011;1901;48.172;12.824;2023-05-02T04:50:24;5.33;;;4.60;;
3771;SDS011;1901;48.172;12.824;2023-05-02T04:52:52;5.83;;;4.70;;
3771;SDS011;1901;48.172;12.824;2023-05-02T04:55:20;4.97;;;4.47;;
3771;SDS011;1901;48.172;12.824;2023-05-02T04:57:47;6.23;;;5.07;;
3771;SDS011;1901;48.172;12.824;2023-05-02T05:00:15;13.10;;;5.23;;
3771;SDS011;1901;48.172;12.824;2023-05-02T05:02:42;8.73;;;5.63;;
3771;SDS011;1901;48.172;12.824;2023-05-02T05:05:09;6.90;;;5.53;;
3771;SDS011;1901;48.172;12.824;2023-05-02T05:07:36;7.53;;;6.13;;
3771;SDS011;1901;48.172;12.824;2023-05-02T05:10:04;6.97;;;6.23;;
3771;SDS011;1901;48.172;12.824;2023-05-02T05:12:33;8.80;;;6.87;;
3771;SDS011;1901;48.172;12.824;2023-05-02T05:15:00;9.07;;;6.20;;
3771;SDS011;1901;48.172;12.824;2023-05-02T05:17:27;9.33;;;7.57;;
3771;SDS011;1901;48.172;12.824;2023-05-02T05:19:54;11.30;;;8.33;;
3771;SDS011;1901;48.172;12.824;2023-05-02T05:22:21;10.10;;;7.10;;
3771;SDS011;1901;48.172;12.824;2023-05-02T05:24:52;8.90;;;7.40;;
3771;SDS011;1901;48.172;12.824;2023-05-02T05:27:19;10.47;;;7.30;;
3771;SDS011;1901;48.172;12.824;2023-05-02T05:29:47;11.63;;;7.53;;
3771;SDS011;1901;48.172;12.824;2023-05-02T05:32:14;9.47;;;7.87;;
3771;SDS011;1901;48.172;12.824;2023-05-02T05:34:42;10.43;;;8.67;;
3771;SDS011;1901;48.172;12.824;2023-05-02T05:37:09;9.70;;;7.73;;
3771;SDS011;1901;48.172;12.824;2023-05-02T05:39:36;12.63;;;8.73;;
3771;SDS011;1901;48.172;12.824;2023-05-02T05:42:03;11.87;;;8.50;;
3771;SDS011;1901;48.172;12.824;2023-05-02T05:44:33;10.87;;;8.20;;
3771;SDS011;1901;48.172;12.824;2023-05-02T05:47:01;11.50;;;9.13;;
3771;SDS011;1901;48.172;12.824;2023-05-02T05:49:28;14.60;;;9.77;;
3771;SDS011;1901;48.172;12.824;2023-05-02T05:51:55;14.77;;;11.00;;
3771;SDS011;1901;48.172;12.824;2023-05-02T05:54:22;10.00;;;8.63;;
3771;SDS011;1901;48.172;12.824;2023-05-02T05:56:49;11.27;;;7.57;;
3771;SDS011;1901;48.172;12.824;2023-05-02T05:59:17;10.87;;;7.93;;
3771;SDS011;1901;48.172;12.824;2023-05-02T06:01:44;10.83;;;8.03;;
3771;SDS011;1901;48.172;12.824;2023-05-02T06:04:12;12.93;;;9.13;;
3771;SDS011;1901;48.172;12.824;2023-05-02T06:06:39;9.67;;;7.87;;
3771;SDS011;1901;48.172;12.824;2023-05-02T06:09:06;8.47;;;7.40;;
3771;SDS011;1901;48.172;12.824;2023-05-02T06:11:35;11.63;;;7.77;;
3771;SDS011;1901;48.172;12.824;2023-05-02T06:14:02;10.03;;;7.70;;
3771;SDS011;1901;48.172;12.824;2023-05-02T06:16:29;9.03;;;6.67;;
3771;SDS011;1901;48.172;12.824;2023-05-02T06:18:56;6.47;;;5.40;;
3771;SDS011;1901;48.172;12.824;2023-05-02T06:21:25;7.30;;;6.27;;
3771;SDS011;1901;48.172;12.824;2023-05-02T06:23:52;8.43;;;6.43;;
3771;SDS011;1901;48.172;12.824;2023-05-02T06:26:19;9.40;;;6.33;;
3771;SDS011;1901;48.172;12.824;2023-05-02T06:28:46;6.57;;;5.83;;
3771;SDS011;1901;48.172;12.824;2023-05-02T06:31:13;6.67;;;6.07;;
3771;SDS011;1901;48.172;12.824;2023-05-02T06:33:41;8.40;;;5.93;;
3771;SDS011;1901;48.172;12.824;2023-05-02T06:36:08;11.50;;;6.20;;
3771;SDS011;1901;48.172;12.824;2023-05-02T06:38:36;6.87;;;5.57;;
3771;SDS011;1901;48.172;12.824;2023-05-02T06:41:03;10.90;;;5.50;;
3771;SDS011;1901;48.172;12.824;2023-05-02T06:43:31;6.53;;;5.50;;
3771;SDS011;1901;48.172;12.824;2023-05-02T06:45:59;6.23;;;4.73;;
3771;SDS011;1901;48.172;12.824;2023-05-02T06:48:27;7.13;;;5.17;;
3771;SDS011;1901;48.172;12.824;2023-05-02T06:50:54;6.87;;;6.13;;
3771;SDS011;1901;48.172;12.824;2023-05-02T06:53:21;6.00;;;5.30;;
3771;SDS011;1901;48.172;12.824;2023-05-02T06:55:49;6.80;;;5.90;;
3771;SDS011;1901;48.172;12.824;2023-05-02T06:58:17;6.47;;;5.43;;
3771;SDS011;1901;48.172;12.824;2023-05-02T07:00:44;6.30;;;5.30;;
3771;SDS011;1901;48.172;12.824;2023-05-02T07:03:12;6.17;;;5.00;;
3771;SDS011;1901;48.172;12.824;2023-05-02T07:05:39;6.87;;;5.43;;
3771;SDS011;1901;48.172;12.824;2023-05-02T07:08:06;6.57;;;5.37;;
3771;SDS011;1901;48.172;12.824;2023-05-02T07:10:34;7.43;;;5.43;;
3771;SDS011;1901;48.172;12.824;2023-05-02T07:13:02;5.20;;;4.70;;
3771;SDS011;1901;48.172;12.824;2023-05-02T07:15:30;4.67;;;4.20;;
3771;SDS011;1901;48.172;12.824;2023-05-02T07:17:57;5.93;;;5.33;;
3771;SDS011;1901;48.172;12.824;2023-05-02T07:20:24;6.60;;;5.83;;
3771;SDS011;1901;48.172;12.824;2023-05-02T07:22:51;11.13;;;7.47;;
3771;SDS011;1901;48.172;12.824;2023-05-02T07:25:18;5.10;;;4.60;;
3771;SDS011;1901;48.172;12.824;2023-05-02T07:27:45;7.03;;;6.20;;
3771;SDS011;1901;48.172;12.824;2023-05-02T07:30:14;6.70;;;4.93;;
3771;SDS011;1901;48.172;12.824;2023-05-02T07:32:41;6.63;;;5.40;;
3771;SDS011;1901;48.172;12.824;2023-05-02T07:35:08;6.60;;;5.80;;
3771;SDS011;1901;48.172;12.824;2023-05-02T07:37:35;7.00;;;5.90;;
3771;SDS011;1901;48.172;12.824;2023-05-02T07:40:03;7.23;;;5.60;;
3771;SDS011;1901;48.172;12.824;2023-05-02T07:42:31;5.37;;;4.87;;
3771;SDS011;1901;48.172;12.824;2023-05-02T07:44:58;6.53;;;5.80;;
3771;SDS011;1901;48.172;12.824;2023-05-02T07:47:27;6.07;;;4.60;;
3771;SDS011;1901;48.172;12.824;2023-05-02T07:49:54;5.67;;;5.00;;
3771;SDS011;1901;48.172;12.824;2023-05-02T07:52:21;6.10;;;5.00;;
3771;SDS011;1901;48.172;12.824;2023-05-02T07:54:49;5.93;;;5.23;;
3771;SDS011;1901;48.172;12.824;2023-05-02T07:57:16;6.17;;;5.57;;
3771;SDS011;1901;48.172;12.824;2023-05-02T07:59:43;6.83;;;6.13;;
3771;SDS011;1901;48.172;12.824;2023-05-02T08:02:10;6.00;;;5.40;;
3771;SDS011;1901;48.172;12.824;2023-05-02T08:04:39;6.43;;;5.13;;
3771;SDS011;1901;48.172;12.824;2023-05-02T08:07:06;5.23;;;4.73;;
3771;SDS011;1901;48.172;12.824;2023-05-02T08:09:33;7.57;;;6.77;;
3771;SDS011;1901;48.172;12.824;2023-05-02T08:12:00;7.43;;;4.97;;
3771;SDS011;1901;48.172;12.824;2023-05-02T08:14:27;6.47;;;4.87;;
3771;SDS011;1901;48.172;12.824;2023-05-02T08:16:54;5.60;;;5.10;;
3771;SDS011;1901;48.172;12.824;2023-05-02T08:19:21;7.50;;;5.43;;
3771;SDS011;1901;48.172;12.824;2023-05-02T08:21:50;6.10;;;5.50;;
3771;SDS011;1901;48.172;12.824;2023-05-02T08:24:17;5.53;;;4.90;;
3771;SDS011;1901;48.172;12.824;2023-05-02T08:26:44;8.40;;;7.50;;
3771;SDS011;1901;48.172;12.824;2023-05-02T08:29:11;26.30;;;6.70;;
3771;SDS011;1901;48.172;12.824;2023-05-02T08:31:38;8.50;;;7.00;;
3771;SDS011;1901;48.172;12.824;2023-05-02T08:34:06;6.73;;;6.03;;
3771;SDS011;1901;48.172;12.824;2023-05-02T08:36:33;7.90;;;5.70;;
3771;SDS011;1901;48.172;12.824;2023-05-02T08:39:02;6.20;;;5.63;;
3771;SDS011;1901;48.172;12.824;2023-05-02T08:41:32;6.07;;;5.47;;
3771;SDS011;1901;48.172;12.824;2023-05-02T08:43:59;6.20;;;5.43;;
3771;SDS011;1901;48.172;12.824;2023-05-02T08:46:26;7.87;;;5.10;;
3771;SDS011;1901;48.172;12.824;2023-05-02T08:48:54;5.37;;;4.97;;
3771;SDS011;1901;48.172;12.824;2023-05-02T08:51:22;5.63;;;5.00;;
3771;SDS011;1901;48.172;12.824;2023-05-02T08:53:50;5.47;;;5.00;;
3771;SDS011;1901;48.172;12.824;2023-05-02T08:56:19;6.93;;;5.80;;
3771;SDS011;1901;48.172;12.824;2023-05-02T08:58:46;7.27;;;6.23;;
3771;SDS011;1901;48.172;12.824;2023-05-02T09:01:14;7.37;;;5.33;;
3771;SDS011;1901;48.172;12.824;2023-05-02T09:03:42;9.20;;;5.80;;
3771;SDS011;1901;48.172;12.824;2023-05-02T09:06:10;6.93;;;6.27;;
3771;SDS011;1901;48.172;12.824;2023-05-02T09:08:38;6.17;;;5.57;;
3771;SDS011;1901;48.172;12.824;2023-05-02T09:11:06;10.13;;;6.60;;
3771;SDS011;1901;48.172;12.824;2023-05-02T09:13:36;6.57;;;5.97;;
3771;SDS011;1901;48.172;12.824;2023-05-02T09:16:03;9.60;;;8.70;;
3771;SDS011;1901;48.172;12.824;2023-05-02T09:18:31;8.00;;;7.30;;
3771;SDS011;1901;48.172;12.824;2023-05-02T09:20:59;9.20;;;8.30;;
3771;SDS011;1901;48.172;12.824;2023-05-02T09:23:32;9.50;;;8.50;;
3771;SDS011;1901;48.172;12.824;2023-05-02T09:25:59;16.10;;;8.70;;
3771;SDS011;1901;48.172;12.824;2023-05-02T09:28:38;8.67;;;7.60;;
3771;SDS011;1901;48.172;12.824;2023-05-02T09:31:06;10.27;;;8.60;;
3771;SDS011;1901;48.172;12.824;2023-05-02T09:33:34;8.93;;;7.57;;
3771;SDS011;1901;48.172;12.824;2023-05-02T09:36:01;7.80;;;7.07;;
3771;SDS011;1901;48.172;12.824;2023-05-02T09:38:28;7.80;;;7.10;;
3771;SDS011;1901;48.172;12.824;2023-05-02T09:40:55;7.47;;;6.77;;
3771;SDS011;1901;48.172;12.824;2023-05-02T09:43:22;8.63;;;7.40;;
3771;SDS011;1901;48.172;12.824;2023-05-02T09:45:57;9.00;;;7.63;;
3771;SDS011;1901;48.172;12.824;2023-05-02T09:48:25;7.70;;;6.87;;
3771;SDS011;1901;48.172;12.824;2023-05-02T09:50:53;8.83;;;8.03;;
3771;SDS011;1901;48.172;12.824;2023-05-02T09:53:21;9.77;;;8.77;;
3771;SDS011;1901;48.172;12.824;2023-05-02T09:55:48;10.73;;;9.63;;
3771;SDS011;1901;48.172;12.824;2023-05-02T09:58:24;11.27;;;9.17;;
3771;SDS011;1901;48.172;12.824;2023-05-02T10:00:51;13.63;;;11.60;;
3771;SDS011;1901;48.172;12.824;2023-05-02T10:03:20;10.77;;;9.67;;
3771;SDS011;1901;48.172;12.824;2023-05-02T10:05:48;10.20;;;9.20;;
3771;SDS011;1901;48.172;12.824;2023-05-02T10:08:17;13.10;;;10.70;;
3771;SDS011;1901;48.172;12.824;2023-05-02T10:10:45;12.60;;;10.50;;
3771;SDS011;1901;48.172;12.824;2023-05-02T10:13:13;10.30;;;9.30;;
3771;SDS011;1901;48.172;12.824;2023-05-02T10:15:43;10.10;;;9.17;;
3771;SDS011;1901;48.172;12.824;2023-05-02T10:18:14;10.13;;;9.13;;
3771;SDS011;1901;48.172;12.824;2023-05-02T10:20:46;9.23;;;7.83;;
3771;SDS011;1901;48.172;12.824;2023-05-02T10:23:14;10.53;;;8.83;;
3771;SDS011;1901;48.172;12.824;2023-05-02T10:25:42;8.60;;;7.77;;
3771;SDS011;1901;48.172;12.824;2023-05-02T10:28:09;7.40;;;6.80;;
3771;SDS011;1901;48.172;12.824;2023-05-02T10:30:38;7.50;;;6.80;;
3771;SDS011;1901;48.172;12.824;2023-05-02T10:33:05;7.33;;;6.63;;
3771;SDS011;1901;48.172;12.824;2023-05-02T10:35:32;6.90;;;6.20;;
3771;SDS011;1901;48.172;12.824;2023-05-02T10:38:00;6.97;;;6.37;;
3771;SDS011;1901;48.172;12.824;2023-05-02T10:40:28;7.63;;;6.80;;
3771;SDS011;1901;48.172;12.824;2023-05-02T10:42:55;10.23;;;7.80;;
3771;SDS011;1901;48.172;12.824;2023-05-02T10:45:29;7.97;;;7.17;;
3771;SDS011;1901;48.172;12.824;2023-05-02T10:48:16;8.00;;;7.23;;
3771;SDS011;1901;48.172;12.824;2023-05-02T10:50:47;10.57;;;7.33;;
3771;SDS011;1901;48.172;12.824;2023-05-02T10:53:23;6.53;;;5.93;;
3771;SDS011;1901;48.172;12.824;2023-05-02T10:58:50;7.23;;;6.50;;
3771;SDS011;1901;48.172;12.824;2023-05-02T11:01:33;6.80;;;6.20;;
3771;SDS011;1901;48.172;12.824;2023-05-02T11:04:02;6.87;;;6.00;;
3771;SDS011;1901;48.172;12.824;2023-05-02T11:06:30;6.63;;;6.03;;
3771;SDS011;1901;48.172;12.824;2023-05-02T11:11:45;8.73;;;6.07;;
3771;SDS011;1901;48.172;12.824;2023-05-02T11:14:40;7.00;;;6.30;;
3771;SDS011;1901;48.172;12.824;2023-05-02T11:17:06;6.60;;;6.00;;
3771;SDS011;1901;48.172;12.824;2023-05-02T11:22:31;7.60;;;6.70;;
3771;SDS011;1901;48.172;12.824;2023-05-02T11:24:58;7.17;;;6.47;;
3771;SDS011;1901;48.172;12.824;2023-05-02T11:27:39;6.90;;;6.30;;
3771;SDS011;1901;48.172;12.824;2023-05-02T11:30:08;7.13;;;6.43;;
3771;SDS011;1901;48.172;12.824;2023-05-02T11:35:25;7.67;;;6.83;;
3771;SDS011;1901;48.172;12.824;2023-05-02T11:37:55;7.70;;;6.93;;
3771;SDS011;1901;48.172;12.824;2023-05-02T11:40:22;7.73;;;6.93;;
3771;SDS011;1901;48.172;12.824;2023-05-02T11:42:51;7.63;;;6.27;;
3771;SDS011;1901;48.172;12.824;2023-05-02T11:45:19;6.70;;;6.07;;
3771;SDS011;1901;48.172;12.824;2023-05-02T11:47:46;8.73;;;6.90;;
3771;SDS011;1901;48.172;12.824;2023-05-02T11:50:14;8.20;;;6.60;;
3771;SDS011;1901;48.172;12.824;2023-05-02T11:52:41;7.07;;;6.47;;
3771;SDS011;1901;48.172;12.824;2023-05-02T11:55:09;7.07;;;6.47;;
3771;SDS011;1901;48.172;12.824;2023-05-02T11:57:37;7.73;;;6.93;;
3771;SDS011;1901;48.172;12.824;2023-05-02T12:00:06;9.00;;;6.20;;
3771;SDS011;1901;48.172;12.824;2023-05-02T12:02:35;8.47;;;7.47;;
3771;SDS011;1901;48.172;12.824;2023-05-02T12:05:02;11.10;;;7.63;;
3771;SDS011;1901;48.172;12.824;2023-05-02T12:07:34;7.73;;;7.03;;
3771;SDS011;1901;48.172;12.824;2023-05-02T12:10:02;6.70;;;6.10;;
3771;SDS011;1901;48.172;12.824;2023-05-02T12:12:29;7.67;;;6.80;;
3771;SDS011;1901;48.172;12.824;2023-05-02T12:14:57;7.53;;;6.80;;
3771;SDS011;1901;48.172;12.824;2023-05-02T12:17:25;8.67;;;7.87;;
3771;SDS011;1901;48.172;12.824;2023-05-02T12:19:53;8.30;;;7.50;;
3771;SDS011;1901;48.172;12.824;2023-05-02T12:22:22;12.20;;;8.80;;
3771;SDS011;1901;48.172;12.824;2023-05-02T12:24:49;9.13;;;8.17;;
3771;SDS011;1901;48.172;12.824;2023-05-02T12:27:17;9.37;;;8.37;;
3771;SDS011;1901;48.172;12.824;2023-05-02T12:29:45;9.80;;;8.20;;
3771;SDS011;1901;48.172;12.824;2023-05-02T12:32:13;10.13;;;9.13;;
3771;SDS011;1901;48.172;12.824;2023-05-02T12:34:42;9.87;;;8.60;;
3771;SDS011;1901;48.172;12.824;2023-05-02T12:37:09;9.37;;;8.20;;
3771;SDS011;1901;48.172;12.824;2023-05-02T12:39:37;15.37;;;11.13;;
3771;SDS011;1901;48.172;12.824;2023-05-02T12:42:07;17.73;;;12.23;;
3771;SDS011;1901;48.172;12.824;2023-05-02T12:44:35;12.23;;;11.00;;
3771;SDS011;1901;48.172;12.824;2023-05-02T12:47:02;11.77;;;10.60;;
3771;SDS011;1901;48.172;12.824;2023-05-02T12:49:30;11.23;;;10.17;;
3771;SDS011;1901;48.172;12.824;2023-05-02T12:51:58;11.70;;;10.03;;
3771;SDS011;1901;48.172;12.824;2023-05-02T12:54:25;13.47;;;10.37;;
3771;SDS011;1901;48.172;12.824;2023-05-02T12:56:52;9.20;;;8.40;;
3771;SDS011;1901;48.172;12.824;2023-05-02T12:59:26;12.40;;;8.40;;
3771;SDS011;1901;48.172;12.824;2023-05-02T13:01:53;9.50;;;8.50;;
3771;SDS011;1901;48.172;12.824;2023-05-02T13:04:20;8.97;;;8.07;;
3771;SDS011;1901;48.172;12.824;2023-05-02T13:06:47;10.37;;;9.40;;
3771;SDS011;1901;48.172;12.824;2023-05-02T13:09:16;11.67;;;10.47;;
3771;SDS011;1901;48.172;12.824;2023-05-02T13:11:43;10.20;;;9.03;;
3771;SDS011;1901;48.172;12.824;2023-05-02T13:14:10;12.33;;;9.13;;
3771;SDS011;1901;48.172;12.824;2023-05-02T13:16:37;12.67;;;10.97;;
3771;SDS011;1901;48.172;12.824;2023-05-02T13:19:04;14.80;;;10.20;;
3771;SDS011;1901;48.172;12.824;2023-05-02T13:21:32;15.53;;;9.80;;
3771;SDS011;1901;48.172;12.824;2023-05-02T13:23:59;13.23;;;10.83;;
3771;SDS011;1901;48.172;12.824;2023-05-02T13:26:29;7.80;;;7.03;;
3771;SDS011;1901;48.172;12.824;2023-05-02T13:28:56;9.17;;;8.20;;
3771;SDS011;1901;48.172;12.824;2023-05-02T13:31:23;7.90;;;6.10;;
3771;SDS011;1901;48.172;12.824;2023-05-02T13:33:50;5.67;;;5.13;;
3771;SDS011;1901;48.172;12.824;2023-05-02T13:36:17;6.83;;;6.10;;
3771;SDS011;1901;48.172;12.824;2023-05-02T13:38:45;7.93;;;6.07;;
3771;SDS011;1901;48.172;12.824;2023-05-02T13:41:12;8.20;;;6.03;;
3771;SDS011;1901;48.172;12.824;2023-05-02T13:43:40;6.87;;;5.50;;
3771;SDS011;1901;48.172;12.824;2023-05-02T13:46:07;7.47;;;6.77;;
3771;SDS011;1901;48.172;12.824;2023-05-02T13:48:34;8.20;;;7.37;;
3771;SDS011;1901;48.172;12.824;2023-05-02T13:51:02;10.60;;;7.67;;
3771;SDS011;1901;48.172;12.824;2023-05-02T13:53:29;13.53;;;7.53;;
3771;SDS011;1901;48.172;12.824;2023-05-02T13:55:56;9.80;;;7.97;;
3771;SDS011;1901;48.172;12.824;2023-05-02T13:58:23;6.17;;;5.63;;
3771;SDS011;1901;48.172;12.824;2023-05-02T14:00:52;6.23;;;5.30;;
3771;SDS011;1901;48.172;12.824;2023-05-02T14:03:19;7.27;;;6.57;;
3771;SDS011;1901;48.172;12.824;2023-05-02T14:05:46;11.37;;;8.57;;
3771;SDS011;1901;48.172;12.824;2023-05-02T14:08:13;12.13;;;8.10;;
3771;SDS011;1901;48.172;12.824;2023-05-02T14:10:42;11.03;;;8.50;;
3771;SDS011;1901;48.172;12.824;2023-05-02T14:13:09;7.27;;;6.57;;
3771;SDS011;1901;48.172;12.824;2023-05-02T14:15:36;8.37;;;6.70;;
3771;SDS011;1901;48.172;12.824;2023-05-02T14:18:05;8.70;;;6.27;;
3771;SDS011;1901;48.172;12.824;2023-05-02T14:20:32;7.40;;;6.47;;
3771;SDS011;1901;48.172;12.824;2023-05-02T14:23:00;11.27;;;8.23;;
3771;SDS011;1901;48.172;12.824;2023-05-02T14:25:27;7.40;;;6.70;;
3771;SDS011;1901;48.172;12.824;2023-05-02T14:27:54;10.67;;;8.40;;
3771;SDS011;1901;48.172;12.824;2023-05-02T14:30:21;8.33;;;6.47;;
3771;SDS011;1901;48.172;12.824;2023-05-02T14:32:48;7.53;;;6.77;;
3771;SDS011;1901;48.172;12.824;2023-05-02T14:35:17;7.20;;;6.23;;
3771;SDS011;1901;48.172;12.824;2023-05-02T14:37:44;9.37;;;6.90;;
3771;SDS011;1901;48.172;12.824;2023-05-02T14:40:12;8.20;;;6.80;;
3771;SDS011;1901;48.172;12.824;2023-05-02T14:42:40;9.10;;;7.77;;
3771;SDS011;1901;48.172;12.824;2023-05-02T14:45:07;11.50;;;5.07;;
3771;SDS011;1901;48.172;12.824;2023-05-02T14:47:35;5.20;;;4.70;;
3771;SDS011;1901;48.172;12.824;2023-05-02T14:50:02;4.80;;;4.30;;
3771;SDS011;1901;48.172;12.824;2023-05-02T14:52:31;5.80;;;4.83;;
3771;SDS011;1901;48.172;12.824;2023-05-02T14:54:58;6.70;;;4.60;;
3771;SDS011;1901;48.172;12.824;2023-05-02T14:57:25;5.43;;;4.93;;
3771;SDS011;1901;48.172;12.824;2023-05-02T14:59:53;4.70;;;4.30;;
3771;SDS011;1901;48.172;12.824;2023-05-02T15:02:20;4.87;;;4.40;;
3771;SDS011;1901;48.172;12.824;2023-05-02T15:04:47;5.67;;;5.17;;
3771;SDS011;1901;48.172;12.824;2023-05-02T15:07:14;6.43;;;5.37;;
3771;SDS011;1901;48.172;12.824;2023-05-02T15:09:43;6.47;;;5.00;;
3771;SDS011;1901;48.172;12.824;2023-05-02T15:12:10;6.60;;;5.20;;
3771;SDS011;1901;48.172;12.824;2023-05-02T15:14:37;8.43;;;7.10;;
3771;SDS011;1901;48.172;12.824;2023-05-02T15:17:04;13.37;;;8.40;;